createdAt,value
2017-12-10T00:01:23.778Z,56.00
2017-12-10T00:03:52.037Z,56.10
2017-12-10T00:06:20.281Z,55.90
2017-12-10T00:08:48.752Z,56.00
2017-12-10T00:11:17.205Z,56.00
2017-12-10T00:13:46.269Z,55.90
2017-12-10T00:16:16.172Z,55.90
2017-12-10T00:18:45.275Z,55.90
2017-12-10T00:21:13.528Z,56.00
2017-12-10T00:23:41.817Z,55.70
2017-12-10T00:26:10.876Z,56.00
2017-12-10T00:28:40.893Z,55.80
2017-12-10T00:31:10.929Z,55.70
2017-12-10T00:33:40.132Z,55.70
2017-12-10T00:36:09.391Z,55.60
2017-12-10T00:38:38.544Z,55.70
2017-12-10T00:41:06.817Z,55.90
2017-12-10T00:43:35.988Z,55.60
2017-12-10T00:46:04.283Z,55.60
2017-12-10T00:48:33.440Z,55.70
2017-12-10T00:51:01.707Z,55.70
2017-12-10T00:53:29.955Z,55.50
2017-12-10T00:55:58.240Z,55.30
2017-12-10T00:58:26.504Z,55.50
2017-12-10T01:00:55.709Z,55.40
2017-12-10T01:03:24.940Z,55.50
2017-12-10T01:05:53.997Z,55.40
2017-12-10T01:08:22.257Z,55.20
2017-12-10T01:10:51.380Z,55.30
2017-12-10T01:13:19.731Z,55.20
2017-12-10T01:15:47.994Z,55.30
2017-12-10T01:18:17.300Z,55.10
2017-12-10T01:20:45.692Z,55.30
2017-12-10T01:23:13.986Z,55.20
2017-12-10T01:25:42.668Z,55.20
2017-12-10T01:28:11.017Z,55.20
2017-12-10T01:30:40.034Z,55.20
2017-12-10T01:33:08.293Z,55.20
2017-12-10T01:35:36.551Z,54.90
2017-12-10T01:38:06.456Z,55.10
2017-12-10T01:40:34.757Z,55.10
2017-12-10T01:43:03.017Z,55.10
2017-12-10T01:45:31.460Z,55.00
2017-12-10T01:47:59.743Z,54.90
2017-12-10T01:50:28.001Z,55.00
2017-12-10T01:52:56.263Z,55.20
2017-12-10T01:55:24.542Z,54.90
2017-12-10T01:57:52.801Z,54.90
2017-12-10T02:00:22.897Z,54.90
2017-12-10T02:02:51.871Z,54.80
2017-12-10T02:05:20.906Z,55.10
2017-12-10T02:07:50.992Z,55.10
2017-12-10T02:10:19.256Z,54.80
2017-12-10T02:12:48.048Z,55.10
2017-12-10T02:15:16.332Z,55.10
2017-12-10T02:17:44.794Z,55.10
2017-12-10T02:20:13.025Z,54.90
2017-12-10T02:22:41.325Z,55.10
2017-12-10T02:25:10.455Z,55.20
2017-12-10T02:27:39.668Z,55.00
2017-12-10T02:30:07.956Z,55.20
2017-12-10T02:32:36.237Z,55.30
2017-12-10T02:35:04.494Z,55.40
2017-12-10T02:37:33.601Z,55.10
2017-12-10T02:40:01.903Z,55.40
2017-12-10T02:42:31.312Z,55.50
2017-12-10T02:44:59.565Z,55.70
2017-12-10T02:47:27.837Z,55.80
2017-12-10T02:49:56.279Z,55.70
2017-12-10T02:52:24.504Z,55.90
2017-12-10T02:54:52.756Z,56.10
2017-12-10T02:57:21.840Z,56.00
2017-12-10T02:59:50.864Z,56.10
2017-12-10T03:02:19.148Z,56.00
2017-12-10T03:04:47.424Z,55.90
2017-12-10T03:07:15.688Z,56.10
2017-12-10T03:09:43.954Z,56.20
2017-12-10T03:12:12.237Z,56.20
2017-12-10T03:14:40.509Z,56.20
2017-12-10T03:17:08.916Z,56.30
2017-12-10T03:19:37.911Z,56.30
2017-12-10T03:22:06.326Z,56.30
2017-12-10T03:24:34.837Z,56.50
2017-12-10T03:27:03.104Z,56.70
2017-12-10T03:29:31.359Z,56.50
2017-12-10T03:31:59.609Z,56.90
2017-12-10T03:34:27.880Z,56.80
2017-12-10T03:36:56.123Z,56.80
2017-12-10T03:39:24.384Z,56.90
2017-12-10T03:41:52.741Z,56.80
2017-12-10T03:44:21.708Z,57.00
2017-12-10T03:46:50.112Z,57.60
2017-12-10T03:49:18.560Z,57.00
2017-12-10T03:51:46.909Z,57.10
2017-12-10T03:54:15.215Z,57.10
2017-12-10T03:56:43.469Z,57.10
2017-12-10T03:59:11.728Z,57.10
2017-12-10T04:01:41.051Z,57.20
2017-12-10T04:04:10.708Z,57.20
2017-12-10T04:06:38.938Z,57.00
2017-12-10T04:09:07.279Z,57.00
2017-12-10T04:11:35.539Z,57.10
2017-12-10T04:14:03.789Z,57.10
2017-12-10T04:16:32.853Z,57.20
2017-12-10T04:19:01.097Z,57.30
2017-12-10T04:21:30.130Z,57.20
2017-12-10T04:23:58.405Z,57.20
2017-12-10T04:26:26.653Z,57.20
2017-12-10T04:28:54.921Z,57.20
2017-12-10T04:31:23.204Z,57.60
2017-12-10T04:33:51.477Z,57.50
2017-12-10T04:36:19.726Z,57.70
2017-12-10T04:38:48.027Z,57.60
2017-12-10T04:41:18.032Z,57.80
2017-12-10T04:43:47.768Z,57.60
2017-12-10T04:46:16.060Z,58.10
2017-12-10T04:48:44.301Z,57.40
2017-12-10T04:51:12.569Z,57.70
2017-12-10T04:53:40.846Z,57.70
2017-12-10T04:56:09.109Z,57.70
2017-12-10T04:58:38.072Z,58.00
2017-12-10T05:01:06.346Z,57.90
2017-12-10T05:03:34.604Z,57.90
2017-12-10T05:06:03.043Z,57.80
2017-12-10T05:08:32.280Z,58.00
2017-12-10T05:11:01.377Z,57.90
2017-12-10T05:13:29.652Z,58.10
2017-12-10T05:15:57.956Z,58.10
2017-12-10T05:18:26.205Z,57.90
2017-12-10T05:20:54.476Z,57.80
2017-12-10T05:23:22.824Z,57.90
2017-12-10T05:25:51.083Z,57.80
2017-12-10T05:28:20.096Z,57.90
2017-12-10T05:30:48.358Z,57.90
2017-12-10T05:35:51.549Z,57.80
2017-12-10T05:38:19.815Z,58.00
2017-12-10T05:40:48.860Z,57.80
2017-12-10T05:43:17.240Z,58.00
2017-12-10T05:45:46.352Z,57.70
2017-12-10T05:48:14.622Z,57.80
2017-12-10T05:50:42.914Z,58.10
2017-12-10T05:53:11.207Z,58.00
2017-12-10T05:55:39.484Z,58.10
2017-12-10T05:58:07.732Z,58.00
2017-12-10T06:00:36.010Z,57.80
2017-12-10T06:03:04.284Z,57.90
2017-12-10T06:05:32.568Z,57.80
2017-12-10T06:08:01.829Z,57.80
2017-12-10T06:10:30.549Z,57.60
2017-12-10T06:12:59.001Z,57.70
2017-12-10T06:15:27.301Z,57.70
2017-12-10T06:17:55.596Z,57.60
2017-12-10T06:20:23.844Z,57.30
2017-12-10T06:22:52.138Z,57.40
2017-12-10T06:25:20.382Z,57.40
2017-12-10T06:27:48.662Z,57.30
2017-12-10T06:30:16.937Z,57.20
2017-12-10T06:32:45.230Z,57.40
2017-12-10T06:35:13.508Z,57.20
2017-12-10T06:37:41.789Z,57.40
2017-12-10T06:40:10.149Z,57.20
2017-12-10T06:42:38.409Z,57.20
2017-12-10T06:45:07.445Z,57.20
2017-12-10T06:47:35.718Z,57.00
2017-12-10T06:50:04.020Z,57.00
2017-12-10T06:52:33.111Z,57.00
2017-12-10T06:55:01.380Z,57.00
2017-12-10T06:57:29.681Z,56.80
2017-12-10T06:59:57.986Z,56.70
2017-12-10T07:02:26.311Z,56.50
2017-12-10T07:04:54.595Z,56.50
2017-12-10T07:07:22.980Z,56.40
2017-12-10T07:09:51.624Z,56.50
2017-12-10T07:12:19.965Z,56.40
2017-12-10T07:14:49.197Z,56.50
2017-12-10T07:17:18.232Z,56.10
2017-12-10T07:19:46.463Z,55.90
2017-12-10T07:22:14.768Z,56.20
2017-12-10T07:24:43.034Z,56.00
2017-12-10T07:27:11.445Z,56.30
2017-12-10T07:29:39.700Z,56.20
2017-12-10T07:32:08.042Z,56.20
2017-12-10T07:34:37.238Z,56.20
2017-12-10T07:37:06.250Z,55.80
2017-12-10T07:39:34.513Z,56.10
2017-12-10T07:42:02.846Z,55.90
2017-12-10T07:44:31.098Z,56.60
2017-12-10T07:46:59.384Z,56.20
2017-12-10T07:49:27.757Z,56.10
2017-12-10T07:51:56.022Z,56.30
2017-12-10T07:54:24.310Z,56.20
2017-12-10T07:56:52.562Z,56.30
2017-12-10T07:59:20.877Z,56.10
2017-12-10T08:01:49.194Z,56.30
2017-12-10T08:04:17.476Z,56.40
2017-12-10T08:06:45.776Z,56.40
2017-12-10T08:09:14.046Z,56.20
2017-12-10T08:11:42.463Z,56.30
2017-12-10T08:14:10.738Z,57.00
2017-12-10T08:16:39.025Z,56.10
2017-12-10T08:19:07.285Z,56.20
2017-12-10T08:21:35.573Z,56.00
2017-12-10T08:24:03.871Z,56.20
2017-12-10T08:26:34.580Z,56.10
2017-12-10T08:29:03.801Z,56.10
2017-12-10T08:31:33.222Z,56.00
2017-12-10T08:34:02.234Z,56.40
2017-12-10T08:36:30.820Z,56.60
2017-12-10T08:38:59.181Z,56.20
2017-12-10T08:41:27.449Z,56.70
2017-12-10T08:43:55.729Z,56.00
2017-12-10T08:46:24.021Z,56.10
2017-12-10T08:48:52.487Z,55.80
2017-12-10T08:51:20.712Z,55.80
2017-12-10T08:53:49.891Z,55.90
2017-12-10T08:56:18.165Z,56.70
2017-12-10T08:58:46.443Z,55.90
2017-12-10T09:01:14.722Z,55.90
2017-12-10T09:03:43.256Z,55.90
2017-12-10T09:06:12.641Z,56.00
2017-12-10T09:08:40.951Z,55.70
2017-12-10T09:11:09.209Z,55.80
2017-12-10T09:13:37.489Z,55.80
2017-12-10T09:16:05.757Z,55.90
2017-12-10T09:18:34.061Z,55.80
2017-12-10T09:21:02.325Z,55.70
2017-12-10T09:23:31.398Z,55.70
2017-12-10T09:26:00.537Z,55.70
2017-12-10T09:28:29.356Z,55.80
2017-12-10T09:30:57.616Z,55.60
2017-12-10T09:33:25.977Z,55.60
2017-12-10T09:35:54.272Z,55.60
2017-12-10T09:38:23.402Z,55.60
2017-12-10T09:40:51.652Z,55.60
2017-12-10T09:43:19.950Z,55.50
2017-12-10T09:45:48.574Z,55.50
2017-12-10T09:48:16.854Z,55.40
2017-12-10T09:50:45.899Z,55.10
2017-12-10T09:53:14.215Z,55.30
2017-12-10T09:55:43.982Z,55.20
2017-12-10T09:58:13.211Z,55.20
2017-12-10T10:00:42.918Z,55.10
2017-12-10T10:03:11.172Z,55.00
2017-12-10T10:05:39.496Z,54.80
2017-12-10T10:08:07.771Z,54.80
2017-12-10T10:10:36.057Z,54.70
2017-12-10T10:13:05.285Z,54.70
2017-12-10T10:15:33.726Z,54.80
2017-12-10T10:18:01.986Z,54.50
2017-12-10T10:20:30.253Z,54.90
2017-12-10T10:22:58.557Z,54.40
2017-12-10T10:25:27.620Z,54.30
2017-12-10T10:27:55.921Z,54.30
2017-12-10T10:30:24.956Z,54.20
2017-12-10T10:32:53.516Z,54.20
2017-12-10T10:35:22.598Z,54.10
2017-12-10T10:37:51.025Z,54.20
2017-12-10T10:40:19.320Z,54.10
2017-12-10T10:42:47.624Z,53.90
2017-12-10T10:45:15.883Z,54.10
2017-12-10T10:47:45.004Z,54.20
2017-12-10T10:50:13.292Z,54.10
2017-12-10T10:52:42.484Z,54.10
2017-12-10T10:55:11.640Z,54.30
2017-12-10T10:57:40.882Z,54.10
2017-12-10T11:00:10.038Z,54.20
2017-12-10T11:02:40.005Z,54.40
2017-12-10T11:05:08.312Z,54.20
2017-12-10T11:07:36.592Z,54.20
2017-12-10T11:10:04.890Z,54.30
2017-12-10T11:12:33.160Z,54.30
2017-12-10T11:15:01.452Z,54.20
2017-12-10T11:17:30.898Z,54.30
2017-12-10T11:19:59.939Z,54.60
2017-12-10T11:22:28.244Z,54.50
2017-12-10T11:24:56.530Z,54.60
2017-12-10T11:27:25.623Z,54.80
2017-12-10T11:29:54.677Z,54.80
2017-12-10T11:32:22.951Z,54.80
2017-12-10T11:34:51.995Z,54.90
2017-12-10T11:37:20.317Z,55.00
2017-12-10T11:39:49.575Z,55.10
2017-12-10T11:42:17.904Z,55.40
2017-12-10T11:44:46.199Z,55.50
2017-12-10T11:47:15.331Z,55.50
2017-12-10T11:49:44.587Z,55.70
2017-12-10T11:52:14.615Z,55.90
2017-12-10T11:54:42.923Z,56.00
2017-12-10T11:57:12.232Z,56.10
2017-12-10T11:59:40.490Z,56.30
2017-12-10T12:02:08.811Z,56.30
2017-12-10T12:04:37.073Z,56.50
2017-12-10T12:07:05.342Z,56.80
2017-12-10T12:09:33.677Z,56.80
2017-12-10T12:12:01.987Z,56.80
2017-12-10T12:14:30.252Z,57.00
2017-12-10T12:17:00.329Z,56.90
2017-12-10T12:19:28.591Z,57.00
2017-12-10T12:21:56.884Z,57.10
2017-12-10T12:24:26.036Z,57.20
2017-12-10T12:26:55.095Z,57.30
2017-12-10T12:29:23.418Z,57.50
2017-12-10T12:31:52.425Z,57.40
2017-12-10T12:34:21.678Z,57.60
2017-12-10T12:36:50.074Z,57.60
2017-12-10T12:39:18.364Z,57.80
2017-12-10T12:41:46.770Z,57.70
2017-12-10T12:44:15.044Z,57.60
2017-12-10T12:46:46.142Z,57.70
2017-12-10T12:49:14.398Z,57.80
2017-12-10T12:51:44.289Z,57.90
2017-12-10T12:54:13.360Z,57.90
2017-12-10T12:56:41.619Z,58.00
2017-12-10T12:59:10.868Z,58.30
2017-12-10T13:01:39.123Z,58.50
2017-12-10T13:04:07.389Z,58.00
2017-12-10T13:06:36.499Z,58.70
2017-12-10T13:09:04.732Z,58.80
2017-12-10T13:11:33.012Z,59.40
2017-12-10T13:14:01.259Z,58.90
2017-12-10T13:16:29.742Z,58.90
2017-12-10T13:18:58.184Z,58.90
2017-12-10T13:21:27.983Z,58.80
2017-12-10T13:23:56.245Z,58.80
2017-12-10T13:26:24.535Z,58.90
2017-12-10T13:28:52.826Z,58.90
2017-12-10T13:31:22.036Z,59.00
2017-12-10T13:33:51.262Z,59.20
2017-12-10T13:36:20.297Z,59.10
2017-12-10T13:38:48.610Z,59.00
2017-12-10T13:41:17.016Z,59.50
2017-12-10T13:43:45.267Z,59.70
2017-12-10T13:46:13.564Z,60.10
2017-12-10T13:48:41.889Z,59.90
2017-12-10T13:51:10.307Z,60.10
2017-12-10T13:53:39.360Z,60.20
2017-12-10T13:56:07.709Z,60.20
2017-12-10T13:58:35.968Z,60.20
2017-12-10T14:01:05.780Z,60.00
2017-12-10T14:03:35.689Z,60.30
2017-12-10T14:06:03.950Z,60.10
2017-12-10T14:08:32.345Z,60.10
2017-12-10T14:11:00.807Z,60.20
2017-12-10T14:13:29.951Z,60.20
2017-12-10T14:15:58.411Z,60.10
2017-12-10T14:18:27.180Z,60.40
2017-12-10T14:20:55.488Z,60.40
2017-12-10T14:23:24.628Z,60.40
2017-12-10T14:25:53.808Z,60.30
2017-12-10T14:28:22.285Z,60.60
2017-12-10T14:30:50.556Z,60.70
2017-12-10T14:33:19.707Z,60.50
2017-12-10T14:35:48.752Z,60.50
2017-12-10T14:38:18.193Z,60.60
2017-12-10T14:40:47.269Z,60.50
2017-12-10T14:43:16.378Z,60.40
2017-12-10T14:45:44.960Z,60.60
2017-12-10T14:48:13.378Z,60.60
2017-12-10T14:50:42.000Z,60.60
2017-12-10T14:53:10.759Z,60.50
2017-12-10T14:55:39.036Z,60.50
2017-12-10T14:58:07.504Z,60.70
2017-12-10T15:00:35.856Z,60.80
2017-12-10T15:03:04.100Z,60.50
2017-12-10T15:05:32.396Z,60.50
2017-12-10T15:08:00.683Z,60.50
2017-12-10T15:10:29.257Z,60.40
2017-12-10T15:12:57.581Z,60.40
2017-12-10T15:15:25.847Z,60.30
2017-12-10T15:17:54.125Z,60.50
2017-12-10T15:20:23.246Z,60.60
2017-12-10T15:22:51.705Z,60.50
2017-12-10T15:25:20.158Z,60.60
2017-12-10T15:27:48.460Z,60.70
2017-12-10T15:30:17.727Z,60.90
2017-12-10T15:32:47.000Z,61.00
2017-12-10T15:35:15.337Z,61.10
2017-12-10T15:37:43.588Z,61.00
2017-12-10T15:40:11.855Z,60.90
2017-12-10T15:42:40.176Z,60.90
2017-12-10T15:45:08.470Z,61.00
2017-12-10T15:47:37.260Z,61.00
2017-12-10T15:50:05.538Z,61.10
2017-12-10T15:52:33.788Z,61.10
2017-12-10T15:55:02.834Z,61.20
2017-12-10T15:57:31.125Z,61.20
2017-12-10T16:00:00.249Z,61.30
2017-12-10T16:02:28.509Z,61.70
2017-12-10T16:04:56.794Z,61.50
2017-12-10T16:07:25.039Z,61.60
2017-12-10T16:09:53.334Z,61.80
2017-12-10T16:12:22.566Z,61.70
2017-12-10T16:14:50.845Z,61.60
2017-12-10T16:17:19.097Z,61.80
2017-12-10T16:19:47.381Z,61.80
2017-12-10T16:22:15.677Z,61.90
2017-12-10T16:24:43.941Z,61.70
2017-12-10T16:27:12.255Z,62.00
2017-12-10T16:29:40.537Z,62.40
2017-12-10T16:32:08.811Z,62.10
2017-12-10T16:34:37.106Z,62.00
2017-12-10T16:37:05.388Z,62.00
2017-12-10T16:39:34.930Z,62.20
2017-12-10T16:42:03.297Z,62.20
2017-12-10T16:44:31.544Z,62.30
2017-12-10T16:46:59.850Z,62.20
2017-12-10T16:49:28.865Z,62.30
2017-12-10T16:51:57.167Z,62.30
2017-12-10T16:54:26.422Z,62.60
2017-12-10T16:56:54.657Z,62.30
2017-12-10T16:59:22.950Z,62.30
2017-12-10T17:01:51.461Z,62.30
2017-12-10T17:04:20.557Z,62.30
2017-12-10T17:06:48.852Z,61.90
2017-12-10T17:09:17.136Z,62.50
2017-12-10T17:11:45.421Z,62.30
2017-12-10T17:14:13.725Z,61.90
2017-12-10T17:16:42.040Z,62.00
2017-12-10T17:19:11.860Z,62.00
2017-12-10T17:21:40.183Z,62.00
2017-12-10T17:24:09.321Z,62.30
2017-12-10T17:26:38.678Z,62.20
2017-12-10T17:29:09.071Z,62.10
2017-12-10T17:31:38.672Z,62.10
2017-12-10T17:34:07.727Z,62.20
2017-12-10T17:36:37.740Z,62.10
2017-12-10T17:39:06.772Z,62.30
2017-12-10T17:41:35.829Z,61.90
2017-12-10T17:44:04.952Z,62.40
2017-12-10T17:46:33.282Z,62.10
2017-12-10T17:49:01.619Z,62.50
2017-12-10T17:51:30.171Z,62.30
2017-12-10T17:53:58.475Z,62.20
2017-12-10T17:56:27.774Z,62.40
2017-12-10T17:58:56.853Z,62.20
2017-12-10T18:01:25.167Z,62.00
2017-12-10T18:03:53.523Z,62.00
2017-12-10T18:06:23.766Z,62.20
2017-12-10T18:08:52.044Z,62.20
2017-12-10T18:11:22.031Z,62.00
2017-12-10T18:13:50.350Z,62.30
2017-12-10T18:16:19.507Z,62.20
2017-12-10T18:18:47.783Z,62.30
2017-12-10T18:23:37.145Z,61.90
2017-12-10T18:26:06.222Z,62.20
2017-12-10T18:28:34.558Z,62.20
2017-12-10T18:31:02.888Z,62.00
2017-12-10T18:33:31.300Z,62.00
2017-12-10T18:35:59.628Z,62.10
2017-12-10T18:38:27.974Z,62.00
2017-12-10T18:40:56.417Z,62.00
2017-12-10T18:43:25.260Z,62.20
2017-12-10T18:45:54.515Z,62.20
2017-12-10T18:48:22.814Z,62.10
2017-12-10T18:50:51.861Z,62.30
2017-12-10T18:53:20.132Z,62.20
2017-12-10T18:55:48.420Z,62.30
2017-12-10T18:58:16.732Z,62.10
2017-12-10T19:00:45.047Z,62.00
2017-12-10T19:03:14.262Z,62.20
2017-12-10T19:05:42.592Z,62.00
2017-12-10T19:08:10.927Z,62.00
2017-12-10T19:10:39.200Z,61.80
2017-12-10T19:13:08.472Z,61.80
2017-12-10T19:15:36.830Z,61.90
2017-12-10T19:18:05.288Z,61.80
2017-12-10T19:20:33.533Z,61.70
2017-12-10T19:23:01.860Z,61.60
2017-12-10T19:25:30.149Z,61.30
2017-12-10T19:27:59.453Z,61.50
2017-12-10T19:30:27.978Z,61.40
2017-12-10T19:32:56.233Z,61.40
2017-12-10T19:35:24.522Z,61.10
2017-12-10T19:37:52.838Z,60.80
2017-12-10T19:40:21.130Z,60.90
2017-12-10T19:42:49.408Z,61.00
2017-12-10T19:45:17.833Z,61.10
2017-12-10T19:47:47.697Z,61.20
2017-12-10T19:50:16.733Z,61.60
2017-12-10T19:52:45.150Z,61.50
2017-12-10T19:55:13.500Z,61.70
2017-12-10T19:57:41.804Z,62.10
2017-12-10T20:00:11.080Z,62.50
2017-12-10T20:02:39.708Z,62.50
2017-12-10T20:05:08.006Z,62.70
2017-12-10T20:07:36.363Z,62.70
2017-12-10T20:10:05.391Z,63.10
2017-12-10T20:12:33.682Z,63.30
2017-12-10T20:15:02.034Z,63.20
2017-12-10T20:17:30.303Z,63.50
2017-12-10T20:19:58.564Z,63.30
2017-12-10T20:22:27.632Z,63.50
2017-12-10T20:24:56.047Z,63.30
2017-12-10T20:27:24.365Z,63.50
2017-12-10T20:29:53.697Z,63.20
2017-12-10T20:32:22.803Z,63.40
2017-12-10T20:34:51.880Z,63.10
2017-12-10T20:37:20.984Z,63.20
2017-12-10T20:39:49.356Z,63.00
2017-12-10T20:42:17.659Z,62.50
2017-12-10T20:44:46.836Z,62.40
2017-12-10T20:47:15.074Z,62.40
2017-12-10T20:49:43.349Z,62.90
2017-12-10T20:52:11.680Z,62.90
2017-12-10T20:54:40.749Z,62.80
2017-12-10T20:57:10.003Z,62.70
2017-12-10T20:59:38.250Z,63.00
2017-12-10T21:02:06.589Z,63.20
2017-12-10T21:04:34.834Z,63.00
2017-12-10T21:07:03.104Z,63.10
2017-12-10T21:09:34.278Z,63.40
2017-12-10T21:12:03.536Z,63.30
2017-12-10T21:14:31.811Z,63.80
2017-12-10T21:17:00.478Z,63.10
2017-12-10T21:19:29.950Z,63.00
2017-12-10T21:21:58.253Z,63.00
2017-12-10T21:24:27.304Z,62.40
2017-12-10T21:26:55.776Z,62.30
2017-12-10T21:29:24.961Z,61.90
2017-12-10T21:31:53.256Z,61.60
2017-12-10T21:34:23.679Z,61.50
2017-12-10T21:36:52.814Z,61.20
2017-12-10T21:39:22.165Z,61.10
2017-12-10T21:41:50.696Z,61.10
2017-12-10T21:44:18.978Z,61.10
2017-12-10T21:46:49.714Z,60.50
2017-12-10T21:49:17.968Z,60.30
2017-12-10T21:51:47.226Z,60.00
2017-12-10T21:54:15.780Z,59.80
2017-12-10T21:56:44.816Z,59.40
2017-12-10T21:59:13.701Z,59.50
2017-12-10T22:01:42.044Z,59.70
2017-12-10T22:04:10.300Z,59.50
2017-12-10T22:06:40.132Z,59.20
2017-12-10T22:09:09.169Z,59.90
2017-12-10T22:11:37.496Z,59.00
2017-12-10T22:14:05.759Z,59.10
2017-12-10T22:16:34.153Z,59.00
2017-12-10T22:19:03.277Z,59.00
2017-12-10T22:21:31.548Z,59.00
2017-12-10T22:24:00.626Z,58.80
2017-12-10T22:26:28.956Z,58.90
2017-12-10T22:28:57.228Z,58.90
2017-12-10T22:31:25.735Z,58.70
2017-12-10T22:33:54.096Z,58.90
2017-12-10T22:36:23.240Z,59.30
2017-12-10T22:38:52.272Z,59.60
2017-12-10T22:41:20.561Z,59.50
2017-12-10T22:43:48.982Z,59.40
2017-12-10T22:46:17.204Z,59.30
2017-12-10T22:48:45.505Z,59.60
2017-12-10T22:51:13.772Z,59.70
2017-12-10T22:53:43.056Z,59.70
2017-12-10T22:56:11.422Z,59.90
2017-12-10T22:58:39.689Z,59.80
2017-12-10T23:01:07.991Z,59.80
2017-12-10T23:03:36.261Z,59.60
2017-12-10T23:06:04.526Z,59.50
2017-12-10T23:08:32.798Z,59.90
2017-12-10T23:11:01.188Z,59.70
2017-12-10T23:13:41.387Z,59.50
2017-12-10T23:16:21.413Z,59.60
2017-12-10T23:18:49.659Z,59.40
2017-12-10T23:21:17.939Z,59.30
2017-12-10T23:23:47.264Z,59.10
2017-12-10T23:26:15.609Z,59.30
2017-12-10T23:28:43.917Z,59.10
2017-12-10T23:31:12.241Z,59.70
2017-12-10T23:33:40.534Z,59.10
2017-12-10T23:36:08.825Z,59.30
2017-12-10T23:38:37.644Z,59.20
2017-12-10T23:41:05.907Z,58.70
2017-12-10T23:43:34.997Z,58.90
2017-12-10T23:46:03.324Z,58.50
2017-12-10T23:48:32.512Z,58.60
2017-12-10T23:51:00.792Z,58.60
2017-12-10T23:53:30.133Z,58.20
2017-12-10T23:55:59.096Z,58.50
2017-12-10T23:58:27.377Z,58.20
